createdAt,value
2019-01-08T00:02:16.973Z,24.57
2019-01-08T00:04:46.124Z,22.97
2019-01-08T00:07:17.612Z,28.30
2019-01-08T00:09:46.913Z,26.00
2019-01-08T00:12:16.063Z,24.23
2019-01-08T00:14:45.216Z,26.90
2019-01-08T00:17:14.732Z,21.07
2019-01-08T00:19:44.236Z,21.43
2019-01-08T00:22:14.125Z,26.93
2019-01-08T00:24:43.332Z,20.33
2019-01-08T00:27:12.529Z,25.87
2019-01-08T00:29:42.070Z,26.27
2019-01-08T00:32:11.298Z,25.23
2019-01-08T00:34:40.445Z,24.60
2019-01-08T00:37:09.859Z,22.57
2019-01-08T00:39:39.055Z,25.43
2019-01-08T00:42:08.205Z,25.93
2019-01-08T00:44:37.728Z,23.60
2019-01-08T00:47:07.461Z,23.30
2019-01-08T00:49:36.625Z,26.00
2019-01-08T00:52:05.753Z,23.93
2019-01-08T00:54:34.938Z,25.17
2019-01-08T00:57:04.075Z,20.60
2019-01-08T00:59:33.246Z,20.43
2019-01-08T01:02:02.445Z,23.27
2019-01-08T01:04:31.615Z,22.67
2019-01-08T01:07:01.080Z,20.13
2019-01-08T01:09:30.515Z,19.60
2019-01-08T01:11:59.934Z,18.23
2019-01-08T01:14:29.379Z,17.97
2019-01-08T01:16:58.778Z,15.20
2019-01-08T01:19:27.946Z,19.93
2019-01-08T01:21:57.396Z,17.50
2019-01-08T01:24:26.661Z,20.17
2019-01-08T01:26:56.080Z,17.60
2019-01-08T01:29:25.220Z,19.57
2019-01-08T01:31:54.656Z,19.03
2019-01-08T01:34:23.889Z,15.23
2019-01-08T01:36:53.318Z,16.23
2019-01-08T01:39:22.444Z,16.47
2019-01-08T01:41:51.609Z,19.40
2019-01-08T01:44:20.744Z,19.73
2019-01-08T01:46:50.007Z,19.53
2019-01-08T01:49:19.167Z,17.20
2019-01-08T01:51:48.337Z,14.20
2019-01-08T01:54:17.934Z,16.47
2019-01-08T01:56:47.929Z,15.37
2019-01-08T01:59:17.358Z,17.80
2019-01-08T02:01:46.606Z,14.50
2019-01-08T02:04:15.864Z,19.60
2019-01-08T02:06:45.103Z,17.57
2019-01-08T02:09:14.539Z,19.83
2019-01-08T02:11:43.805Z,18.37
2019-01-08T02:14:13.030Z,19.03
2019-01-08T02:16:42.280Z,18.23
2019-01-08T02:19:11.850Z,18.23
2019-01-08T02:21:41.189Z,17.27
2019-01-08T02:24:10.422Z,17.87
2019-01-08T02:26:39.786Z,16.47
2019-01-08T02:29:16.305Z,18.30
2019-01-08T02:31:39.999Z,15.73
2019-01-08T02:34:09.229Z,14.87
2019-01-08T02:36:38.429Z,15.13
2019-01-08T02:39:08.027Z,14.80
2019-01-08T02:41:37.187Z,15.93
2019-01-08T02:44:06.729Z,13.30
2019-01-08T02:46:36.001Z,16.53
2019-01-08T02:49:05.419Z,15.23
2019-01-08T02:51:35.007Z,16.30
2019-01-08T02:54:04.589Z,16.57
2019-01-08T02:56:33.955Z,12.93
2019-01-08T02:59:03.128Z,14.47
2019-01-08T03:01:32.404Z,12.27
2019-01-08T03:04:01.605Z,12.33
2019-01-08T03:06:30.793Z,9.80
2019-01-08T03:09:00.025Z,6.07
2019-01-08T03:11:29.200Z,5.03
2019-01-08T03:13:58.469Z,4.23
2019-01-08T03:16:27.627Z,3.80
2019-01-08T03:18:57.260Z,4.07
2019-01-08T03:21:26.814Z,4.00
2019-01-08T03:23:56.235Z,4.60
2019-01-08T03:26:25.453Z,4.30
2019-01-08T03:28:54.713Z,4.03
2019-01-08T03:31:23.957Z,3.70
2019-01-08T03:33:53.270Z,4.23
2019-01-08T03:36:24.812Z,3.57
2019-01-08T03:38:54.017Z,3.80
2019-01-08T03:41:23.530Z,3.93
2019-01-08T03:43:52.685Z,4.10
2019-01-08T03:46:21.853Z,4.20
2019-01-08T03:48:51.534Z,4.20
2019-01-08T03:51:20.947Z,5.53
2019-01-08T03:53:50.194Z,3.80
2019-01-08T03:56:19.417Z,5.00
2019-01-08T03:58:48.597Z,5.33
2019-01-08T04:01:17.774Z,6.07
2019-01-08T04:03:46.937Z,5.43
2019-01-08T04:06:16.340Z,5.47
2019-01-08T04:08:45.526Z,5.67
2019-01-08T04:11:14.688Z,5.70
2019-01-08T04:13:44.183Z,5.60
2019-01-08T04:16:13.525Z,5.10
2019-01-08T04:18:43.086Z,6.13
2019-01-08T04:21:12.807Z,4.63
2019-01-08T04:23:41.962Z,5.27
2019-01-08T04:26:11.469Z,6.33
2019-01-08T04:28:40.724Z,6.30
2019-01-08T04:31:10.161Z,7.80
2019-01-08T04:33:39.409Z,6.33
2019-01-08T04:36:08.659Z,5.93
2019-01-08T04:38:38.450Z,5.83
2019-01-08T04:41:08.059Z,7.13
2019-01-08T04:43:37.557Z,7.70
2019-01-08T04:46:06.727Z,6.90
2019-01-08T04:48:35.885Z,6.03
2019-01-08T04:51:05.065Z,6.77
2019-01-08T04:53:34.331Z,6.27
2019-01-08T04:56:03.597Z,7.77
2019-01-08T04:58:32.970Z,5.57
2019-01-08T05:01:02.606Z,8.23
2019-01-08T05:03:31.972Z,9.60
2019-01-08T05:06:01.222Z,8.50
2019-01-08T05:08:30.783Z,7.17
2019-01-08T05:11:00.325Z,7.47
2019-01-08T05:13:29.571Z,5.83
2019-01-08T05:15:58.859Z,7.10
2019-01-08T05:18:28.013Z,9.20
2019-01-08T05:20:57.261Z,7.90
2019-01-08T05:23:26.524Z,6.77
2019-01-08T05:25:55.773Z,6.80
2019-01-08T05:28:25.020Z,9.57
2019-01-08T05:30:54.685Z,8.27
2019-01-08T05:33:23.950Z,7.10
2019-01-08T05:35:53.231Z,9.30
2019-01-08T05:38:22.484Z,9.20
2019-01-08T05:40:51.746Z,8.20
2019-01-08T05:43:21.027Z,8.40
2019-01-08T05:45:50.876Z,7.53
2019-01-08T05:48:20.138Z,9.30
2019-01-08T05:50:49.386Z,9.47
2019-01-08T05:53:19.035Z,9.17
2019-01-08T05:55:48.289Z,7.30
2019-01-08T05:58:17.486Z,10.13
2019-01-08T06:00:46.730Z,9.57
2019-01-08T06:03:16.005Z,10.47
2019-01-08T06:05:45.337Z,9.93
2019-01-08T06:08:14.637Z,9.63
2019-01-08T06:10:43.976Z,8.40
2019-01-08T06:13:13.265Z,11.00
2019-01-08T06:15:42.562Z,13.03
2019-01-08T06:18:12.264Z,9.83
2019-01-08T06:20:41.862Z,10.23
2019-01-08T06:23:11.146Z,9.67
2019-01-08T06:25:40.410Z,10.07
2019-01-08T06:28:09.712Z,12.40
2019-01-08T06:30:38.990Z,8.57
2019-01-08T06:33:08.306Z,9.93
2019-01-08T06:35:37.594Z,10.83
2019-01-08T06:38:06.902Z,9.20
2019-01-08T06:40:36.226Z,11.73
2019-01-08T06:43:06.265Z,12.37
2019-01-08T06:45:35.498Z,9.57
2019-01-08T06:48:07.079Z,7.87
2019-01-08T06:50:36.397Z,8.13
2019-01-08T06:53:05.694Z,10.80
2019-01-08T06:55:35.018Z,11.90
2019-01-08T06:58:04.681Z,11.00
2019-01-08T07:00:34.345Z,11.80
2019-01-08T07:03:03.681Z,12.50
2019-01-08T07:05:33.119Z,11.23
2019-01-08T07:08:02.411Z,10.23
2019-01-08T07:10:31.685Z,7.97
2019-01-08T07:13:00.926Z,9.73
2019-01-08T07:15:30.490Z,8.80
2019-01-08T07:17:59.713Z,8.67
2019-01-08T07:20:29.104Z,10.57
2019-01-08T07:22:58.685Z,9.77
2019-01-08T07:25:28.127Z,11.00
2019-01-08T07:27:57.354Z,8.97
2019-01-08T07:30:26.619Z,9.33
2019-01-08T07:32:55.996Z,9.07
2019-01-08T07:35:25.357Z,9.03
2019-01-08T07:37:54.703Z,8.17
2019-01-08T07:40:24.096Z,8.53
2019-01-08T07:42:53.445Z,9.20
2019-01-08T07:45:22.742Z,8.10
2019-01-08T07:47:52.053Z,8.67
2019-01-08T07:50:21.468Z,8.60
2019-01-08T07:52:50.972Z,8.70
2019-01-08T07:55:20.739Z,9.67
2019-01-08T07:57:50.102Z,7.57
2019-01-08T08:00:19.626Z,8.20
2019-01-08T08:02:49.746Z,10.73
2019-01-08T08:05:19.356Z,8.37
2019-01-08T08:07:48.688Z,7.20
2019-01-08T08:10:17.893Z,7.67
2019-01-08T08:12:48.150Z,5.87
2019-01-08T08:15:17.850Z,5.07
2019-01-08T08:17:47.241Z,5.03
2019-01-08T08:20:16.691Z,6.87
2019-01-08T08:22:46.213Z,6.23
2019-01-08T08:25:15.445Z,4.50
2019-01-08T08:27:44.969Z,3.27
2019-01-08T08:30:14.637Z,4.97
2019-01-08T08:32:43.989Z,3.87
2019-01-08T08:35:13.261Z,8.23
2019-01-08T08:37:42.861Z,4.03
2019-01-08T08:40:12.389Z,5.70
2019-01-08T08:42:41.637Z,5.50
2019-01-08T08:45:10.905Z,4.20
2019-01-08T08:47:40.187Z,7.17
2019-01-08T08:50:09.737Z,7.33
2019-01-08T08:52:39.016Z,7.50
2019-01-08T08:55:08.521Z,4.07
2019-01-08T08:57:38.185Z,2.70
2019-01-08T09:00:09.395Z,5.03
2019-01-08T09:02:39.056Z,5.33
2019-01-08T09:05:08.630Z,4.67
2019-01-08T09:07:38.053Z,2.93
2019-01-08T09:10:07.658Z,6.57
2019-01-08T09:12:36.933Z,5.27
2019-01-08T09:15:06.237Z,6.47
2019-01-08T09:17:35.466Z,3.03
2019-01-08T09:20:05.350Z,4.00
2019-01-08T09:22:34.668Z,6.10
2019-01-08T09:25:04.274Z,5.37
2019-01-08T09:27:33.767Z,4.10
2019-01-08T09:30:03.070Z,6.03
2019-01-08T09:32:32.593Z,4.83
2019-01-08T09:35:01.939Z,10.07
2019-01-08T09:37:31.268Z,3.60
2019-01-08T09:40:00.605Z,5.13
2019-01-08T09:42:30.153Z,4.13
2019-01-08T09:44:59.509Z,4.40
2019-01-08T09:47:28.926Z,5.80
2019-01-08T09:49:58.158Z,5.13
2019-01-08T09:52:27.521Z,3.53
2019-01-08T09:54:56.782Z,5.77
2019-01-08T09:57:26.193Z,3.50
2019-01-08T09:59:55.438Z,6.83
2019-01-08T10:02:24.847Z,4.23
2019-01-08T10:04:54.126Z,3.47
2019-01-08T10:07:23.425Z,2.83
2019-01-08T10:09:52.815Z,4.63
2019-01-08T10:12:21.968Z,3.73
2019-01-08T10:14:51.214Z,6.80
2019-01-08T10:17:20.930Z,1.53
2019-01-08T10:19:50.215Z,2.33
2019-01-08T10:22:19.752Z,3.50
2019-01-08T10:24:49.068Z,4.53
2019-01-08T10:27:18.415Z,5.53
2019-01-08T10:29:47.780Z,5.53
2019-01-08T10:32:17.034Z,4.00
2019-01-08T10:34:46.344Z,5.77
2019-01-08T10:37:15.609Z,5.00
2019-01-08T10:39:44.945Z,3.20
2019-01-08T10:42:14.261Z,5.50
2019-01-08T10:44:43.564Z,5.97
2019-01-08T10:47:13.216Z,2.70
2019-01-08T10:49:42.590Z,6.50
2019-01-08T10:52:11.849Z,5.43
2019-01-08T10:54:41.138Z,4.73
2019-01-08T10:57:11.742Z,3.73
2019-01-08T10:59:41.930Z,3.40
2019-01-08T11:02:11.204Z,1.70
2019-01-08T11:04:40.397Z,1.97
2019-01-08T11:07:09.619Z,4.17
2019-01-08T11:09:39.031Z,6.03
2019-01-08T11:12:08.405Z,5.50
2019-01-08T11:14:37.790Z,4.63
2019-01-08T11:17:07.041Z,6.90
2019-01-08T11:19:36.348Z,2.83
2019-01-08T11:22:05.551Z,4.87
2019-01-08T11:24:34.726Z,6.80
2019-01-08T11:27:03.974Z,4.67
2019-01-08T11:29:33.486Z,5.27
2019-01-08T11:32:02.895Z,2.93
2019-01-08T11:34:32.353Z,6.30
2019-01-08T11:37:02.214Z,3.77
2019-01-08T11:39:31.508Z,3.57
2019-01-08T11:42:00.935Z,5.80
2019-01-08T11:44:30.185Z,5.93
2019-01-08T11:46:59.726Z,3.67
2019-01-08T11:49:29.583Z,3.53
2019-01-08T11:51:58.901Z,2.37
2019-01-08T11:54:28.501Z,3.90
2019-01-08T11:56:57.833Z,5.93
2019-01-08T11:59:27.046Z,5.87
2019-01-08T12:01:57.470Z,2.57
2019-01-08T12:04:27.310Z,5.00
2019-01-08T12:06:56.691Z,5.13
2019-01-08T12:09:26.044Z,6.77
2019-01-08T12:11:55.355Z,6.90
2019-01-08T12:14:24.979Z,3.13
2019-01-08T12:16:54.461Z,3.73
2019-01-08T12:19:24.066Z,4.43
2019-01-08T12:21:53.422Z,1.77
2019-01-08T12:24:22.764Z,3.73
2019-01-08T12:26:52.341Z,4.03
2019-01-08T12:29:21.873Z,4.37
2019-01-08T12:31:51.546Z,1.80
2019-01-08T12:34:20.952Z,3.40
2019-01-08T12:36:50.279Z,4.30
2019-01-08T12:39:19.613Z,2.70
2019-01-08T12:41:48.940Z,5.53
2019-01-08T12:44:18.434Z,2.70
2019-01-08T12:46:47.645Z,3.93
2019-01-08T12:49:16.872Z,3.90
2019-01-08T12:51:46.114Z,3.47
2019-01-08T12:54:15.462Z,3.67
2019-01-08T12:56:44.786Z,7.57
2019-01-08T12:59:14.037Z,3.20
2019-01-08T13:01:43.511Z,5.07
2019-01-08T13:04:12.753Z,4.67
2019-01-08T13:06:43.644Z,8.73
2019-01-08T13:09:13.199Z,4.33
2019-01-08T13:11:42.501Z,7.77
2019-01-08T13:14:11.701Z,4.00
2019-01-08T13:16:40.981Z,4.30
2019-01-08T13:19:10.288Z,2.83
2019-01-08T13:21:39.586Z,3.60
2019-01-08T13:24:08.895Z,3.73
2019-01-08T13:26:38.149Z,2.40
2019-01-08T13:29:07.750Z,3.63
2019-01-08T13:31:37.313Z,5.77
2019-01-08T13:34:07.809Z,5.33
2019-01-08T13:36:37.273Z,4.77
2019-01-08T13:39:07.757Z,4.60
2019-01-08T13:41:37.273Z,3.50
2019-01-08T13:44:06.633Z,3.53
2019-01-08T13:46:35.794Z,3.10
2019-01-08T13:49:04.982Z,4.20
2019-01-08T13:51:34.173Z,2.90
2019-01-08T13:54:03.372Z,4.77
2019-01-08T13:56:32.626Z,2.60
2019-01-08T13:59:01.985Z,3.47
2019-01-08T14:01:31.186Z,2.97
2019-01-08T14:04:00.461Z,2.27
2019-01-08T14:06:29.703Z,2.60
2019-01-08T14:08:59.326Z,3.87
2019-01-08T14:11:28.600Z,3.83
2019-01-08T14:13:57.903Z,2.83
2019-01-08T14:16:27.259Z,2.97
2019-01-08T14:18:56.520Z,3.67
2019-01-08T14:21:25.752Z,2.60
2019-01-08T14:23:55.004Z,3.00
2019-01-08T14:26:24.525Z,4.70
2019-01-08T14:28:53.878Z,3.57
2019-01-08T14:31:23.126Z,4.10
2019-01-08T14:33:52.722Z,2.10
2019-01-08T14:36:22.298Z,3.90
2019-01-08T14:38:51.572Z,1.37
2019-01-08T14:41:20.720Z,3.93
2019-01-08T14:43:49.977Z,2.40
2019-01-08T14:46:19.266Z,4.50
2019-01-08T14:48:48.433Z,2.93
2019-01-08T14:51:17.597Z,4.03
2019-01-08T14:53:46.861Z,2.30
2019-01-08T14:56:16.217Z,1.27
2019-01-08T14:58:45.742Z,5.23
2019-01-08T15:01:15.030Z,2.10
2019-01-08T15:03:44.229Z,3.10
2019-01-08T15:06:13.437Z,2.50
2019-01-08T15:08:42.704Z,2.90
2019-01-08T15:11:12.006Z,2.77
2019-01-08T15:13:41.253Z,2.80
2019-01-08T15:16:10.773Z,4.87
2019-01-08T15:18:40.062Z,2.73
2019-01-08T15:21:09.433Z,1.20
2019-01-08T15:23:38.910Z,1.73
2019-01-08T15:26:08.125Z,3.13
2019-01-08T15:28:37.404Z,3.73
2019-01-08T15:31:06.999Z,1.53
2019-01-08T15:33:36.289Z,2.40
2019-01-08T15:36:05.557Z,2.13
2019-01-08T15:38:34.713Z,5.17
2019-01-08T15:41:04.244Z,3.50
2019-01-08T15:43:33.483Z,3.00
2019-01-08T15:46:03.079Z,4.77
2019-01-08T15:48:32.489Z,5.67
2019-01-08T15:51:02.115Z,6.30
2019-01-08T15:53:31.424Z,1.70
2019-01-08T15:56:00.970Z,3.20
2019-01-08T15:58:30.306Z,1.60
2019-01-08T16:00:59.881Z,3.43
2019-01-08T16:03:30.586Z,3.00
2019-01-08T16:05:59.768Z,2.87
2019-01-08T16:08:29.433Z,1.80
2019-01-08T16:10:58.826Z,3.10
2019-01-08T16:13:28.055Z,3.27
2019-01-08T16:15:57.681Z,3.37
2019-01-08T16:18:27.053Z,5.10
2019-01-08T16:20:56.281Z,4.73
2019-01-08T16:23:25.541Z,2.23
2019-01-08T16:25:54.746Z,2.43
2019-01-08T16:28:24.005Z,3.77
2019-01-08T16:30:53.290Z,2.87
2019-01-08T16:33:22.612Z,3.63
2019-01-08T16:35:52.221Z,1.43
2019-01-08T16:38:21.470Z,4.47
2019-01-08T16:40:50.721Z,4.73
2019-01-08T16:43:19.914Z,3.87
2019-01-08T16:45:49.064Z,2.53
2019-01-08T16:48:18.395Z,3.57
2019-01-08T16:50:47.982Z,4.17
2019-01-08T16:53:17.510Z,4.47
2019-01-08T16:55:47.997Z,3.20
2019-01-08T16:58:19.098Z,2.30
2019-01-08T17:03:28.727Z,3.00
2019-01-08T17:05:58.113Z,2.70
2019-01-08T17:08:27.662Z,2.50
2019-01-08T17:10:56.974Z,3.07
2019-01-08T17:13:26.347Z,1.90
2019-01-08T17:15:55.677Z,4.10
2019-01-08T17:18:25.037Z,2.10
2019-01-08T17:20:54.458Z,3.23
2019-01-08T17:23:23.790Z,2.67
2019-01-08T17:25:53.192Z,3.43
2019-01-08T17:28:22.704Z,4.50
2019-01-08T17:30:52.062Z,3.13
2019-01-08T17:33:21.271Z,3.67
2019-01-08T17:35:50.687Z,4.57
2019-01-08T17:38:20.076Z,3.10
2019-01-08T17:40:49.439Z,6.33
2019-01-08T17:43:18.882Z,4.67
2019-01-08T17:45:48.142Z,3.10
2019-01-08T17:48:17.614Z,2.63
2019-01-08T17:50:46.967Z,1.60
2019-01-08T17:53:17.262Z,3.13
2019-01-08T17:55:46.760Z,4.30
2019-01-08T17:58:39.734Z,3.70
2019-01-08T18:01:12.176Z,4.17
2019-01-08T18:03:42.776Z,3.30
2019-01-08T18:06:12.409Z,3.20
2019-01-08T18:08:41.758Z,2.07
2019-01-08T18:11:11.324Z,4.53
2019-01-08T18:13:41.033Z,4.67
2019-01-08T18:16:10.343Z,8.43
2019-01-08T18:18:40.211Z,2.30
2019-01-08T18:21:09.781Z,2.30
2019-01-08T18:23:39.062Z,1.83
2019-01-08T18:26:08.622Z,1.40
2019-01-08T18:28:38.068Z,2.17
2019-01-08T18:31:07.610Z,2.17
2019-01-08T18:33:37.141Z,3.23
2019-01-08T18:36:06.967Z,5.43
2019-01-08T18:38:36.238Z,4.10
2019-01-08T18:41:05.544Z,3.37
2019-01-08T18:43:35.013Z,4.47
2019-01-08T18:46:04.275Z,3.17
2019-01-08T18:48:33.634Z,4.00
2019-01-08T18:51:02.828Z,2.23
2019-01-08T18:53:32.732Z,2.63
2019-01-08T18:56:02.272Z,3.70
2019-01-08T18:58:31.607Z,3.43
2019-01-08T19:01:01.001Z,4.83
2019-01-08T19:03:30.222Z,1.90
2019-01-08T19:05:59.507Z,4.13
2019-01-08T19:09:05.272Z,4.90
2019-01-08T19:11:34.618Z,2.57
2019-01-08T19:14:03.964Z,4.93
2019-01-08T19:16:33.327Z,4.73
2019-01-08T19:19:02.794Z,3.97
2019-01-08T19:21:32.179Z,3.63
2019-01-08T19:24:01.465Z,3.03
2019-01-08T19:26:31.094Z,5.07
2019-01-08T19:29:00.545Z,4.57
2019-01-08T19:31:29.841Z,3.30
2019-01-08T19:33:59.095Z,3.17
2019-01-08T19:36:28.417Z,3.77
2019-01-08T19:38:57.724Z,3.97
2019-01-08T19:41:28.079Z,8.50
2019-01-08T19:43:57.676Z,5.50
2019-01-08T19:46:26.911Z,3.47
2019-01-08T19:48:56.517Z,5.10
2019-01-08T19:51:28.916Z,3.63
2019-01-08T19:53:58.480Z,4.00
2019-01-08T19:56:28.029Z,3.80
2019-01-08T19:58:57.300Z,1.93
2019-01-08T20:01:26.994Z,4.57
2019-01-08T20:03:56.558Z,4.93
2019-01-08T20:06:26.088Z,3.27
2019-01-08T20:08:55.322Z,6.97
2019-01-08T20:11:24.787Z,7.00
2019-01-08T20:13:54.155Z,4.47
2019-01-08T20:16:23.704Z,3.97
2019-01-08T20:18:53.056Z,2.93
2019-01-08T20:21:23.391Z,8.90
2019-01-08T20:23:52.759Z,3.67
2019-01-08T20:26:22.171Z,3.43
2019-01-08T20:28:51.425Z,7.67
2019-01-08T20:31:20.635Z,2.23
2019-01-08T20:33:50.230Z,3.83
2019-01-08T20:36:19.446Z,2.57
2019-01-08T20:38:48.681Z,3.13
2019-01-08T20:41:18.467Z,3.47
2019-01-08T20:43:47.693Z,2.00
2019-01-08T20:46:16.925Z,3.93
2019-01-08T20:48:46.523Z,5.00
2019-01-08T20:51:15.860Z,3.87
2019-01-08T20:53:45.415Z,4.03
2019-01-08T20:56:15.062Z,2.87
2019-01-08T20:58:44.991Z,2.27
2019-01-08T21:01:14.306Z,2.20
2019-01-08T21:03:43.580Z,2.70
2019-01-08T21:06:13.445Z,2.93
2019-01-08T21:08:42.994Z,3.97
2019-01-08T21:11:12.176Z,2.03
2019-01-08T21:13:41.416Z,3.80
2019-01-08T21:16:10.738Z,4.43
2019-01-08T21:18:40.021Z,1.43
2019-01-08T21:21:09.277Z,3.83
2019-01-08T21:23:38.638Z,3.40
2019-01-08T21:26:08.143Z,3.20
2019-01-08T21:28:37.499Z,5.03
2019-01-08T21:31:06.959Z,7.37
2019-01-08T21:33:36.270Z,6.47
2019-01-08T21:36:05.574Z,2.93
2019-01-08T21:38:34.861Z,7.97
2019-01-08T21:41:04.181Z,3.93
2019-01-08T21:43:33.385Z,3.57
2019-01-08T21:46:03.083Z,6.83
2019-01-08T21:48:32.350Z,3.80
2019-01-08T21:51:01.890Z,3.97
2019-01-08T21:53:32.509Z,5.33
2019-01-08T21:56:02.234Z,5.23
2019-01-08T21:58:31.762Z,4.07
2019-01-08T22:01:01.499Z,2.37
2019-01-08T22:03:30.962Z,4.40
2019-01-08T22:06:00.628Z,4.87
2019-01-08T22:08:29.894Z,3.93
2019-01-08T22:10:59.333Z,5.10
2019-01-08T22:13:29.643Z,5.37
2019-01-08T22:15:59.186Z,4.13
2019-01-08T22:18:28.513Z,5.23
2019-01-08T22:20:57.794Z,5.80
2019-01-08T22:23:27.309Z,4.90
2019-01-08T22:25:56.917Z,6.10
2019-01-08T22:28:26.453Z,2.63
2019-01-08T22:30:56.145Z,2.07
2019-01-08T22:33:25.674Z,2.50
2019-01-08T22:35:55.308Z,2.17
2019-01-08T22:38:24.576Z,3.87
2019-01-08T22:40:54.283Z,7.67
2019-01-08T22:43:24.150Z,4.30
2019-01-08T22:45:53.430Z,3.43
2019-01-08T22:48:22.961Z,7.70
2019-01-08T22:50:52.734Z,8.67
2019-01-08T22:53:22.385Z,4.07
2019-01-08T22:55:52.193Z,2.83
2019-01-08T22:58:21.561Z,3.70
2019-01-08T23:03:40.715Z,4.77
2019-01-08T23:06:10.430Z,4.60
2019-01-08T23:08:39.744Z,4.97
2019-01-08T23:11:09.059Z,3.90
2019-01-08T23:13:38.603Z,1.60
2019-01-08T23:16:07.902Z,2.40
2019-01-08T23:18:37.228Z,3.27
2019-01-08T23:21:06.919Z,6.07
2019-01-08T23:23:36.153Z,2.27
2019-01-08T23:26:05.799Z,4.37
2019-01-08T23:28:34.990Z,2.33
2019-01-08T23:31:04.189Z,1.53
2019-01-08T23:33:33.697Z,5.80
2019-01-08T23:36:02.943Z,3.97
2019-01-08T23:38:32.205Z,2.63
2019-01-08T23:41:01.671Z,5.97
2019-01-08T23:43:30.916Z,3.30
2019-01-08T23:46:00.198Z,4.00
2019-01-08T23:48:29.495Z,7.47
2019-01-08T23:50:58.690Z,4.63
2019-01-08T23:53:32.653Z,4.30
2019-01-08T23:56:05.787Z,5.80
2019-01-08T23:58:35.055Z,3.47
